Time;durP1;ratioP1;P1;durP2;ratioP2;P2;SDS_P1;SDS_P2;PMS_P1;PMS_P2;Temp;Humidity;BMP_temperature;BMP_pressure;BME280_temperature;BME280_humidity;BME280_pressure;Samples;Min_cycle;Max_cycle;Signal;HPM_P1;HPM_P2
2023/07/24 00:01:40;;;;;;;12.10;11.70;;;17.70;99.90;;;;;;5024720;28;20568;-66
2023/07/24 00:04:07;;;;;;;12.40;11.90;;;17.70;99.90;;;;;;5029073;28;20461;-65
2023/07/24 00:06:34;;;;;;;11.73;11.33;;;17.70;99.90;;;;;;5028919;28;20548;-64
2023/07/24 00:09:02;;;;;;;11.67;11.27;;;17.60;99.90;;;;;;5024822;28;20960;-65
2023/07/24 00:11:29;;;;;;;11.70;11.30;;;17.60;99.90;;;;;;5029781;28;20488;-65
2023/07/24 00:13:56;;;;;;;11.10;10.70;;;17.60;99.90;;;;;;5027004;28;20461;-66
2023/07/24 00:16:23;;;;;;;11.50;11.10;;;17.60;99.90;;;;;;5028447;28;20528;-66
2023/07/24 00:18:50;;;;;;;11.80;11.30;;;17.60;99.90;;;;;;5024026;28;20487;-66
2023/07/24 00:21:16;;;;;;;11.80;11.30;;;17.60;99.90;;;;;;5025036;28;20460;-66
2023/07/24 00:23:43;;;;;;;11.10;10.70;;;17.70;99.90;;;;;;5027994;28;20495;-66
2023/07/24 00:26:11;;;;;;;12.03;11.63;;;17.70;99.90;;;;;;5031155;28;20491;-65
2023/07/24 00:28:38;;;;;;;11.33;10.93;;;17.60;99.90;;;;;;5025278;28;20468;-66
2023/07/24 00:31:06;;;;;;;11.50;11.10;;;17.60;99.90;;;;;;5023437;28;20479;-66
2023/07/24 00:33:35;;;;;;;11.17;10.77;;;17.60;99.90;;;;;;5030590;28;20468;-67
2023/07/24 00:36:03;;;;;;;11.30;10.90;;;17.60;99.90;;;;;;5031226;28;20492;-66
2023/07/24 00:38:30;;;;;;;10.87;10.47;;;17.60;99.90;;;;;;5025377;28;20503;-66
2023/07/24 00:40:57;;;;;;;11.00;10.60;;;17.60;99.90;;;;;;5029396;28;20518;-66
2023/07/24 00:43:27;;;;;;;11.30;10.83;;;17.60;99.90;;;;;;5026962;28;20488;-66
2023/07/24 00:45:55;;;;;;;12.10;11.60;;;17.60;99.90;;;;;;5022498;28;20461;-66
2023/07/24 00:48:22;;;;;;;11.17;10.77;;;17.70;99.90;;;;;;5030583;28;20960;-66
2023/07/24 00:50:50;;;;;;;11.30;10.90;;;17.70;99.90;;;;;;5025842;28;20523;-66
2023/07/24 00:53:18;;;;;;;11.23;10.83;;;17.60;99.90;;;;;;5030659;28;20495;-65
2023/07/24 00:55:46;;;;;;;11.20;10.80;;;17.60;99.90;;;;;;5023200;28;21043;-64
2023/07/24 00:58:15;;;;;;;13.10;12.60;;;17.60;99.90;;;;;;5029311;28;20510;-65
2023/07/24 01:00:44;;;;;;;12.83;12.23;;;17.60;99.90;;;;;;5027654;28;20641;-66
2023/07/24 01:03:12;;;;;;;11.20;10.80;;;17.60;99.90;;;;;;5026495;28;20475;-65
2023/07/24 01:05:40;;;;;;;11.40;10.90;;;17.60;99.90;;;;;;5023741;28;20465;-66
2023/07/24 01:08:07;;;;;;;11.50;11.00;;;17.60;99.90;;;;;;5025272;28;20579;-65
2023/07/24 01:10:34;;;;;;;11.37;10.97;;;17.60;99.90;;;;;;5030554;28;20465;-66
2023/07/24 01:13:06;;;;;;;11.63;11.23;;;17.50;99.90;;;;;;5024911;28;20475;-66
2023/07/24 01:15:35;;;;;;;11.60;11.20;;;17.40;99.90;;;;;;5028563;28;20847;-65
2023/07/24 01:18:10;;;;;;;11.93;11.43;;;17.30;99.90;;;;;;5020982;28;20534;-66
2023/07/24 01:20:38;;;;;;;11.80;11.40;;;17.30;99.90;;;;;;5028410;28;20984;-66
2023/07/24 01:23:23;;;;;;;12.07;11.57;;;17.40;99.90;;;;;;5022646;28;20462;-65
2023/07/24 01:25:56;;;;;;;12.63;12.13;;;17.40;99.90;;;;;;5029293;28;20468;-65
2023/07/24 01:28:24;;;;;;;12.40;11.90;;;17.40;99.90;;;;;;5023760;28;20464;-65
2023/07/24 01:30:52;;;;;;;11.90;11.50;;;17.40;99.90;;;;;;5029000;28;20465;-66
2023/07/24 01:33:19;;;;;;;12.63;12.13;;;17.40;99.90;;;;;;5025622;28;20464;-66
2023/07/24 01:35:50;;;;;;;12.63;12.13;;;17.40;99.90;;;;;;5023081;28;20873;-66
2023/07/24 01:38:17;;;;;;;12.40;11.90;;;17.40;99.90;;;;;;5021641;28;20575;-66
2023/07/24 01:40:45;;;;;;;13.10;12.60;;;17.30;99.90;;;;;;5028542;28;20480;-67
2023/07/24 01:43:14;;;;;;;13.40;12.90;;;17.30;99.90;;;;;;5023975;28;20872;-66
2023/07/24 01:45:43;;;;;;;12.50;12.00;;;17.30;99.90;;;;;;5028402;28;20461;-66
2023/07/24 01:48:11;;;;;;;12.43;11.93;;;17.40;99.90;;;;;;5029954;28;20545;-66
2023/07/24 01:50:38;;;;;;;12.30;11.80;;;17.40;99.90;;;;;;5024191;28;20494;-67
2023/07/24 01:53:05;;;;;;;12.30;11.80;;;17.40;99.90;;;;;;5029436;28;20457;-66
2023/07/24 01:55:33;;;;;;;12.30;11.80;;;17.50;99.90;;;;;;5029165;28;20574;-65
2023/07/24 01:58:00;;;;;;;11.90;11.50;;;17.50;99.90;;;;;;5020178;28;20480;-67
2023/07/24 02:00:28;;;;;;;11.80;11.40;;;17.50;99.90;;;;;;5025429;28;20488;-67
2023/07/24 02:02:57;;;;;;;12.33;11.87;;;17.60;99.90;;;;;;5023054;28;20476;-66
2023/07/24 02:05:24;;;;;;;11.60;11.20;;;17.60;99.90;;;;;;5026219;28;20473;-66
2023/07/24 02:07:51;;;;;;;12.10;11.70;;;17.60;99.90;;;;;;5023350;28;20499;-65
2023/07/24 02:10:17;;;;;;;12.00;11.60;;;17.60;99.90;;;;;;5026781;28;20471;-66
2023/07/24 02:12:45;;;;;;;12.73;12.23;;;17.60;99.90;;;;;;5029001;28;20822;-66
2023/07/24 02:15:12;;;;;;;12.50;12.00;;;17.70;99.90;;;;;;5027134;28;21231;-66
2023/07/24 02:17:42;;;;;;;12.20;11.80;;;17.70;99.90;;;;;;5025018;28;20485;-65
2023/07/24 02:20:10;;;;;;;12.40;11.90;;;17.80;99.90;;;;;;5026855;28;20457;-66
2023/07/24 02:22:37;;;;;;;12.47;11.97;;;17.80;99.90;;;;;;5021078;28;20484;-65
2023/07/24 02:25:04;;;;;;;13.97;13.37;;;17.80;99.90;;;;;;5024380;28;20476;-65
2023/07/24 02:27:34;;;;;;;15.50;14.70;;;17.70;99.90;;;;;;5027811;28;20978;-65
2023/07/24 02:30:02;;;;;;;14.57;13.97;;;17.70;99.90;;;;;;5029820;28;20497;-67
2023/07/24 02:32:29;;;;;;;13.50;13.00;;;17.90;99.90;;;;;;5025535;28;20572;-66
2023/07/24 02:34:57;;;;;;;12.07;11.67;;;17.90;99.90;;;;;;5022733;28;20465;-66
2023/07/24 02:37:25;;;;;;;12.70;12.20;;;17.80;99.90;;;;;;5027204;28;20488;-65
2023/07/24 02:39:53;;;;;;;14.63;13.73;;;17.80;99.90;;;;;;5015553;28;20500;-66
2023/07/24 02:42:20;;;;;;;11.10;10.70;;;17.90;99.90;;;;;;5026398;28;20488;-66
2023/07/24 02:44:49;;;;;;;12.33;11.83;;;17.90;99.90;;;;;;5029332;28;20460;-65
2023/07/24 02:47:16;;;;;;;10.90;10.50;;;17.90;99.90;;;;;;5028889;28;20469;-66
2023/07/24 02:49:44;;;;;;;10.90;10.50;;;17.90;99.90;;;;;;5025501;28;20460;-66
2023/07/24 02:52:12;;;;;;;10.70;10.30;;;17.90;99.90;;;;;;5031606;28;20460;-67
2023/07/24 02:54:39;;;;;;;11.97;11.03;;;17.90;99.90;;;;;;5017807;28;21225;-66
2023/07/24 02:57:06;;;;;;;11.73;11.03;;;17.90;99.90;;;;;;5022070;28;20472;-65
2023/07/24 02:59:34;;;;;;;10.60;10.20;;;17.90;99.90;;;;;;5028319;28;20812;-65
2023/07/24 03:02:02;;;;;;;10.70;10.30;;;17.90;99.90;;;;;;5028536;28;20461;-66
2023/07/24 03:04:29;;;;;;;10.50;10.10;;;17.90;99.90;;;;;;5022036;28;20963;-65
2023/07/24 03:06:57;;;;;;;10.37;10.00;;;18.00;99.90;;;;;;5028578;28;20469;-65
2023/07/24 03:09:25;;;;;;;10.40;10.00;;;18.00;99.90;;;;;;5022616;28;20472;-66
2023/07/24 03:11:54;;;;;;;10.43;10.03;;;17.90;99.90;;;;;;5024824;28;20465;-65
2023/07/24 03:14:20;;;;;;;11.40;11.00;;;17.90;99.90;;;;;;5027211;28;20531;-67
2023/07/24 03:16:47;;;;;;;11.10;10.70;;;17.90;99.90;;;;;;5007429;28;20481;-65
2023/07/24 03:19:17;;;;;;;11.20;10.80;;;17.90;99.90;;;;;;5007825;28;20498;-66
2023/07/24 03:21:44;;;;;;;11.63;11.23;;;17.90;99.90;;;;;;5015644;28;20516;-66
2023/07/24 03:24:11;;;;;;;12.03;11.43;;;17.80;99.90;;;;;;5006053;28;20454;-67
2023/07/24 03:26:39;;;;;;;11.67;11.27;;;17.80;99.90;;;;;;5009149;28;20476;-67
2023/07/24 03:29:07;;;;;;;12.30;11.80;;;17.70;99.90;;;;;;5016419;28;20468;-67
2023/07/24 03:31:33;;;;;;;11.90;11.40;;;17.80;99.90;;;;;;5004802;28;20458;-66
2023/07/24 03:34:01;;;;;;;11.80;11.40;;;17.80;99.90;;;;;;5000704;28;20468;-67
2023/07/24 03:36:28;;;;;;;11.40;11.00;;;17.80;99.90;;;;;;5016893;28;20465;-66
2023/07/24 03:38:54;;;;;;;11.70;11.30;;;17.80;99.90;;;;;;5020632;28;20492;-66
2023/07/24 03:41:21;;;;;;;11.20;10.73;;;17.80;99.90;;;;;;5002876;28;21096;-65
2023/07/24 03:43:50;;;;;;;11.10;10.70;;;17.80;99.90;;;;;;5011152;28;20465;-66
2023/07/24 03:46:17;;;;;;;11.20;10.80;;;17.80;99.90;;;;;;5013645;28;20468;-66
2023/07/24 03:48:45;;;;;;;11.30;10.90;;;17.80;99.90;;;;;;5019043;28;20465;-65
2023/07/24 03:51:12;;;;;;;10.80;10.40;;;17.80;99.90;;;;;;5005316;28;21079;-65
2023/07/24 03:53:39;;;;;;;12.03;11.63;;;17.70;99.90;;;;;;5009655;28;20902;-66
2023/07/24 03:56:06;;;;;;;11.80;11.40;;;17.80;99.90;;;;;;5019542;28;20493;-66
2023/07/24 03:58:32;;;;;;;12.57;11.97;;;17.90;99.90;;;;;;5015002;28;20531;-66
2023/07/24 04:01:01;;;;;;;12.60;12.10;;;17.90;99.90;;;;;;5013010;28;20482;-67
2023/07/24 04:03:28;;;;;;;12.63;12.13;;;18.00;99.90;;;;;;5010409;28;21173;-65
2023/07/24 04:05:55;;;;;;;12.77;12.27;;;18.00;99.90;;;;;;5002794;28;20474;-65
2023/07/24 04:08:21;;;;;;;13.03;12.53;;;18.00;99.90;;;;;;5018671;28;20835;-67
2023/07/24 04:10:48;;;;;;;12.17;11.60;;;18.00;99.90;;;;;;5007908;28;20890;-67
2023/07/24 04:13:15;;;;;;;10.90;10.50;;;18.00;99.90;;;;;;5023419;28;20531;-66
2023/07/24 04:15:44;;;;;;;11.63;11.03;;;18.00;99.90;;;;;;5017024;28;20492;-65
2023/07/24 04:18:14;;;;;;;10.83;10.43;;;18.00;99.90;;;;;;5031918;28;20483;-66
2023/07/24 04:20:41;;;;;;;11.60;11.00;;;18.00;99.90;;;;;;5030580;28;20473;-67
2023/07/24 04:23:08;;;;;;;10.87;10.47;;;17.90;99.90;;;;;;5027313;28;20471;-67
2023/07/24 04:25:36;;;;;;;11.40;11.00;;;17.90;99.90;;;;;;5034309;28;20468;-66
2023/07/24 04:28:04;;;;;;;12.90;12.40;;;17.90;99.90;;;;;;5034232;28;20473;-66
2023/07/24 04:30:35;;;;;;;13.23;12.73;;;17.90;99.90;;;;;;5030787;28;20637;-67
2023/07/24 04:33:01;;;;;;;13.10;12.60;;;18.00;99.90;;;;;;5034017;28;20492;-66
2023/07/24 04:35:30;;;;;;;13.37;12.87;;;18.00;99.90;;;;;;5023188;28;21080;-67
2023/07/24 04:37:58;;;;;;;14.00;13.40;;;18.00;99.90;;;;;;5026830;28;20577;-65
2023/07/24 04:40:26;;;;;;;13.80;13.30;;;18.10;99.90;;;;;;5034217;28;20461;-66
2023/07/24 04:42:54;;;;;;;14.37;13.77;;;18.10;99.90;;;;;;5034079;28;20461;-67
2023/07/24 04:45:21;;;;;;;16.03;15.23;;;18.10;99.90;;;;;;5024552;28;20472;-66
2023/07/24 04:47:50;;;;;;;13.30;12.80;;;18.10;99.90;;;;;;5025549;28;20492;-67
2023/07/24 04:50:17;;;;;;;13.03;12.53;;;18.10;99.90;;;;;;5025351;28;20894;-67
2023/07/24 04:52:46;;;;;;;13.47;12.93;;;18.10;99.90;;;;;;5030681;28;20464;-67
2023/07/24 04:55:13;;;;;;;19.77;13.87;;;18.10;99.90;;;;;;5029015;28;20468;-67
2023/07/24 04:57:40;;;;;;;13.73;12.57;;;18.20;99.90;;;;;;5023892;28;20471;-65
2023/07/24 05:00:09;;;;;;;12.17;11.73;;;18.10;99.90;;;;;;5023290;28;21018;-66
2023/07/24 05:02:36;;;;;;;11.93;11.53;;;18.20;99.90;;;;;;5020784;28;20465;-67
2023/07/24 05:05:03;;;;;;;12.90;12.40;;;18.30;99.90;;;;;;5027793;28;20500;-66
2023/07/24 05:07:30;;;;;;;14.17;13.47;;;18.30;99.90;;;;;;5029727;28;20449;-67
2023/07/24 05:09:58;;;;;;;12.87;12.37;;;18.30;99.90;;;;;;5024097;28;20967;-66
2023/07/24 05:12:25;;;;;;;11.90;11.50;;;18.40;99.90;;;;;;5020890;28;20492;-67
2023/07/24 05:14:54;;;;;;;12.80;12.20;;;18.40;99.90;;;;;;5028219;28;20492;-66
2023/07/24 05:17:21;;;;;;;13.10;12.40;;;18.40;99.90;;;;;;5029229;28;20464;-67
2023/07/24 05:19:48;;;;;;;11.20;10.80;;;18.40;99.90;;;;;;5030693;28;20624;-67
2023/07/24 05:22:14;;;;;;;11.10;10.70;;;18.30;99.90;;;;;;5025342;28;20936;-66
2023/07/24 05:24:42;;;;;;;12.03;11.53;;;18.30;99.90;;;;;;5029541;28;20944;-66
2023/07/24 05:27:12;;;;;;;11.83;11.23;;;18.40;99.90;;;;;;5029610;28;20465;-68
2023/07/24 05:29:38;;;;;;;10.10;9.80;;;18.50;99.90;;;;;;5022949;28;20469;-68
2023/07/24 05:32:06;;;;;;;11.40;10.70;;;18.40;99.90;;;;;;5030011;28;20468;-67
2023/07/24 05:34:32;;;;;;;11.00;10.20;;;18.60;99.90;;;;;;5029845;28;20461;-66
2023/07/24 05:37:01;;;;;;;9.30;8.90;;;18.60;99.90;;;;;;5026368;28;20461;-67
2023/07/24 05:39:27;;;;;;;10.60;9.97;;;18.60;99.90;;;;;;5029714;28;20492;-68
2023/07/24 05:41:54;;;;;;;8.90;8.60;;;18.50;99.90;;;;;;5023264;28;20492;-67
2023/07/24 05:44:22;;;;;;;10.80;10.20;;;18.50;99.90;;;;;;5023838;28;20832;-67
2023/07/24 05:46:50;;;;;;;10.87;10.20;;;18.40;99.90;;;;;;5028488;28;20472;-68
2023/07/24 05:49:16;;;;;;;8.03;7.73;;;18.40;99.90;;;;;;5022039;28;20465;-68
2023/07/24 05:51:44;;;;;;;10.40;9.63;;;18.40;99.90;;;;;;5027000;28;20465;-66
2023/07/24 05:54:11;;;;;;;7.33;7.13;;;18.40;99.90;;;;;;5027370;28;20467;-67
2023/07/24 05:56:38;;;;;;;6.40;6.20;;;18.40;99.90;;;;;;5019070;28;20471;-67
2023/07/24 05:59:05;;;;;;;6.73;6.53;;;18.40;99.90;;;;;;5026624;28;20534;-66
2023/07/24 06:01:33;;;;;;;8.10;7.30;;;18.60;99.90;;;;;;5028366;28;20979;-68
2023/07/24 06:04:00;;;;;;;9.63;8.73;;;18.70;99.90;;;;;;5026952;28;20487;-67
2023/07/24 06:06:28;;;;;;;7.60;7.37;;;18.80;99.90;;;;;;5027969;28;20972;-68
2023/07/24 06:08:55;;;;;;;9.53;8.63;;;18.90;99.90;;;;;;5026801;28;20496;-67
2023/07/24 06:11:23;;;;;;;9.07;8.47;;;19.00;99.90;;;;;;5023476;28;20461;-66
2023/07/24 06:13:52;;;;;;;8.57;8.27;;;19.00;99.90;;;;;;5021449;28;20570;-67
2023/07/24 06:16:19;;;;;;;8.90;8.60;;;19.00;99.90;;;;;;5025023;28;20480;-67
2023/07/24 06:18:47;;;;;;;8.73;8.43;;;19.10;99.90;;;;;;5025255;28;20503;-66
2023/07/24 06:21:14;;;;;;;9.80;9.43;;;19.10;99.90;;;;;;5027176;28;20489;-66
2023/07/24 06:23:41;;;;;;;11.33;10.80;;;19.20;99.90;;;;;;5027546;28;20503;-67
2023/07/24 06:26:08;;;;;;;10.63;10.13;;;19.30;99.90;;;;;;5022174;28;20572;-68
2023/07/24 06:28:35;;;;;;;10.40;10.00;;;19.30;99.90;;;;;;5027117;28;20468;-67
2023/07/24 06:31:02;;;;;;;11.77;11.03;;;19.40;99.90;;;;;;5028278;28;20465;-66
2023/07/24 06:33:28;;;;;;;10.40;10.00;;;19.40;99.90;;;;;;5028987;28;20997;-66
2023/07/24 06:35:57;;;;;;;12.60;11.80;;;19.60;99.90;;;;;;5024596;28;20468;-67
2023/07/24 06:38:24;;;;;;;11.83;11.13;;;19.60;99.90;;;;;;5025330;28;20564;-67
2023/07/24 06:40:51;;;;;;;12.70;11.93;;;19.60;99.90;;;;;;5021428;28;20461;-67
2023/07/24 06:43:18;;;;;;;12.50;11.70;;;19.70;99.90;;;;;;5023840;28;20807;-66
2023/07/24 06:45:45;;;;;;;13.77;13.03;;;19.60;99.90;;;;;;5018751;28;20560;-67
2023/07/24 06:48:11;;;;;;;10.80;10.40;;;19.70;99.90;;;;;;5027826;28;20904;-66
2023/07/24 06:50:38;;;;;;;11.60;10.80;;;19.70;99.90;;;;;;5027363;28;20467;-67
2023/07/24 06:53:06;;;;;;;10.87;10.40;;;19.80;99.90;;;;;;5025966;28;20499;-67
2023/07/24 06:55:33;;;;;;;11.37;10.87;;;19.90;99.90;;;;;;5019827;28;20961;-66
2023/07/24 06:58:00;;;;;;;11.20;10.70;;;19.90;99.90;;;;;;5019693;28;21294;-66
2023/07/24 07:00:27;;;;;;;10.67;10.27;;;20.10;99.90;;;;;;5019123;28;21038;-67
2023/07/24 07:02:54;;;;;;;10.03;9.63;;;20.00;99.90;;;;;;5020627;28;20476;-66
2023/07/24 07:05:21;;;;;;;10.30;9.87;;;20.10;99.90;;;;;;5027564;28;20522;-67
2023/07/24 07:07:49;;;;;;;9.90;9.50;;;20.10;99.90;;;;;;5022452;28;20811;-67
2023/07/24 07:10:17;;;;;;;9.60;9.20;;;20.00;99.90;;;;;;5027376;28;20856;-67
2023/07/24 07:12:46;;;;;;;9.40;9.10;;;20.10;99.90;;;;;;5015640;28;20863;-67
2023/07/24 07:15:13;;;;;;;9.10;8.80;;;20.20;99.90;;;;;;5025354;28;20488;-67
2023/07/24 07:17:40;;;;;;;9.73;9.33;;;20.20;99.90;;;;;;5017083;28;20569;-67
2023/07/24 07:20:08;;;;;;;9.30;9.00;;;20.20;99.90;;;;;;5026731;28;20512;-66
2023/07/24 07:22:34;;;;;;;9.33;9.03;;;20.20;99.90;;;;;;5020283;28;20476;-67
2023/07/24 07:25:01;;;;;;;9.73;9.23;;;20.10;99.90;;;;;;5020618;28;20863;-67
2023/07/24 07:27:29;;;;;;;10.23;9.63;;;20.00;99.90;;;;;;5027021;28;20467;-66
2023/07/24 07:29:57;;;;;;;8.90;8.60;;;20.10;99.90;;;;;;5017596;28;20943;-67
2023/07/24 07:32:24;;;;;;;9.33;8.93;;;20.00;99.90;;;;;;5026868;28;20535;-66
2023/07/24 07:34:51;;;;;;;9.30;8.97;;;20.00;99.90;;;;;;5026680;28;20488;-66
2023/07/24 07:37:18;;;;;;;10.50;10.00;;;20.20;99.90;;;;;;5026563;28;20461;-67
2023/07/24 07:39:45;;;;;;;10.30;9.90;;;20.40;99.90;;;;;;5017149;28;20481;-66
2023/07/24 07:42:12;;;;;;;11.80;11.30;;;20.70;99.90;;;;;;5009105;28;20461;-67
2023/07/24 07:44:40;;;;;;;11.70;11.20;;;20.90;99.90;;;;;;5010016;28;20812;-67
2023/07/24 07:47:07;;;;;;;13.33;12.07;;;21.10;99.90;;;;;;5018660;28;20727;-66
2023/07/24 07:49:34;;;;;;;13.37;12.33;;;21.20;99.90;;;;;;5019925;28;20472;-66
2023/07/24 07:52:01;;;;;;;12.17;11.50;;;21.10;99.90;;;;;;5022386;28;20504;-66
2023/07/24 07:54:28;;;;;;;11.50;10.90;;;21.10;99.90;;;;;;5018382;28;20496;-68
2023/07/24 07:56:56;;;;;;;11.60;11.10;;;21.20;99.90;;;;;;5024604;28;20464;-66
2023/07/24 07:59:23;;;;;;;11.70;11.20;;;21.20;99.90;;;;;;5017289;28;20538;-67
2023/07/24 08:01:51;;;;;;;11.83;11.17;;;21.20;99.90;;;;;;5030496;28;20449;-68
2023/07/24 08:04:19;;;;;;;11.73;11.23;;;21.20;99.90;;;;;;5029718;28;21042;-66
2023/07/24 08:06:46;;;;;;;10.87;10.47;;;21.20;99.90;;;;;;5028602;28;20459;-67
2023/07/24 08:09:13;;;;;;;11.57;11.13;;;21.30;99.90;;;;;;5030349;28;20456;-67
2023/07/24 08:11:40;;;;;;;12.07;11.57;;;21.30;99.90;;;;;;5029294;28;20484;-68
2023/07/24 08:14:07;;;;;;;11.60;11.00;;;21.20;99.90;;;;;;5028997;28;20816;-66
2023/07/24 08:16:34;;;;;;;11.13;10.73;;;21.30;99.90;;;;;;5027892;28;21018;-66
2023/07/24 08:19:03;;;;;;;10.33;9.93;;;21.00;99.90;;;;;;5027850;28;20503;-66
2023/07/24 08:21:30;;;;;;;10.97;10.47;;;21.00;99.90;;;;;;5025265;28;20447;-67
2023/07/24 08:23:58;;;;;;;10.30;9.90;;;21.00;99.90;;;;;;5028761;28;20823;-67
2023/07/24 08:26:25;;;;;;;11.40;11.00;;;21.00;99.90;;;;;;5032039;28;20944;-67
2023/07/24 08:28:52;;;;;;;12.13;11.53;;;20.90;99.90;;;;;;5033975;28;20480;-67
2023/07/24 08:31:19;;;;;;;11.60;11.00;;;20.80;99.90;;;;;;5033404;28;20456;-66
2023/07/24 08:33:46;;;;;;;10.53;10.13;;;20.50;99.90;;;;;;5033807;28;20460;-67
2023/07/24 08:36:14;;;;;;;11.10;10.60;;;20.80;99.90;;;;;;5033544;28;20445;-66
2023/07/24 08:38:42;;;;;;;11.57;11.07;;;21.10;99.90;;;;;;5032798;28;20452;-67
2023/07/24 08:41:11;;;;;;;11.67;11.27;;;21.20;99.90;;;;;;5032034;28;20484;-67
2023/07/24 08:43:39;;;;;;;12.77;12.17;;;21.00;99.90;;;;;;5032248;28;20462;-67
2023/07/24 08:46:07;;;;;;;11.40;11.00;;;20.90;99.90;;;;;;5031227;28;20459;-67
2023/07/24 08:48:36;;;;;;;12.27;11.67;;;20.90;99.90;;;;;;5031736;28;20457;-66
2023/07/24 08:51:04;;;;;;;12.03;11.53;;;20.80;99.90;;;;;;5032080;28;20928;-66
2023/07/24 08:53:33;;;;;;;11.77;11.27;;;20.90;99.90;;;;;;5031472;28;20463;-67
2023/07/24 08:56:01;;;;;;;12.50;11.70;;;20.90;99.90;;;;;;5029765;28;20452;-66
2023/07/24 08:58:28;;;;;;;11.37;10.97;;;21.10;99.90;;;;;;5031840;28;20962;-67
2023/07/24 09:00:55;;;;;;;11.10;10.70;;;21.10;99.90;;;;;;5024915;28;20496;-66
2023/07/24 09:03:22;;;;;;;11.73;11.23;;;21.10;99.90;;;;;;5027910;28;20950;-66
2023/07/24 09:05:49;;;;;;;11.80;11.17;;;21.00;99.90;;;;;;5027851;28;20733;-66
2023/07/24 09:08:16;;;;;;;11.30;10.90;;;21.10;99.90;;;;;;5024650;28;20472;-67
2023/07/24 09:10:44;;;;;;;11.20;10.80;;;21.30;99.90;;;;;;5023104;28;20488;-67
2023/07/24 09:13:13;;;;;;;11.70;11.30;;;21.40;99.90;;;;;;5027625;28;20531;-67
2023/07/24 09:15:44;;;;;;;12.77;12.27;;;21.40;99.90;;;;;;5017174;28;20502;-66
2023/07/24 09:18:11;;;;;;;11.73;11.33;;;21.50;99.90;;;;;;5026176;28;20485;-67
2023/07/24 09:20:43;;;;;;;11.73;11.23;;;22.00;99.90;;;;;;5023233;28;20484;-67
2023/07/24 09:23:11;;;;;;;12.70;12.20;;;22.40;99.90;;;;;;5022839;28;20824;-67
2023/07/24 09:25:39;;;;;;;12.03;11.53;;;22.70;99.90;;;;;;5019311;28;20453;-67
2023/07/24 09:28:15;;;;;;;12.30;11.80;;;22.90;99.90;;;;;;5021924;28;20515;-66
2023/07/24 09:30:43;;;;;;;13.73;13.13;;;23.00;99.90;;;;;;5027062;28;20507;-67
2023/07/24 09:33:10;;;;;;;13.20;12.70;;;23.10;99.90;;;;;;5025912;28;20456;-68
2023/07/24 09:35:37;;;;;;;13.87;13.27;;;23.40;99.90;;;;;;5019302;28;20465;-67
2023/07/24 09:38:07;;;;;;;13.93;13.33;;;23.50;99.90;;;;;;5027138;28;20469;-67
2023/07/24 09:40:43;;;;;;;13.20;12.70;;;23.50;99.90;;;;;;5019569;28;20507;-67
2023/07/24 09:43:21;;;;;;;14.87;14.20;;;23.40;99.90;;;;;;5026811;28;20456;-67
2023/07/24 09:45:49;;;;;;;13.30;12.80;;;23.50;99.90;;;;;;5022830;28;20457;-66
2023/07/24 09:48:18;;;;;;;13.73;13.13;;;23.40;99.90;;;;;;5026325;28;20479;-67
2023/07/24 09:50:47;;;;;;;14.50;13.90;;;23.40;99.90;;;;;;5023418;28;20500;-67
2023/07/24 09:53:20;;;;;;;13.80;13.20;;;23.50;99.90;;;;;;5022820;28;20504;-68
2023/07/24 09:55:52;;;;;;;13.60;13.00;;;23.30;99.90;;;;;;5026851;28;20457;-67
2023/07/24 09:58:22;;;;;;;13.87;13.27;;;23.20;99.90;;;;;;5021484;28;20465;-67
2023/07/24 10:00:50;;;;;;;14.30;13.60;;;23.60;99.90;;;;;;5027291;28;20535;-67
2023/07/24 10:03:17;;;;;;;13.90;13.30;;;23.40;99.90;;;;;;5024538;28;20931;-67
2023/07/24 10:05:46;;;;;;;13.97;13.37;;;23.30;99.90;;;;;;5025166;28;20469;-67
2023/07/24 10:08:14;;;;;;;13.60;12.80;;;23.00;99.90;;;;;;5014750;28;22455;-68
2023/07/24 10:10:40;;;;;;;14.17;13.57;;;23.40;99.90;;;;;;5023028;28;20818;-68
2023/07/24 10:13:10;;;;;;;13.80;13.20;;;23.10;99.90;;;;;;5025495;28;20463;-69
2023/07/24 10:15:40;;;;;;;14.13;13.53;;;23.00;99.90;;;;;;5024021;28;20480;-67
2023/07/24 10:18:09;;;;;;;14.67;14.00;;;23.50;99.90;;;;;;5020237;28;20982;-67
2023/07/24 10:20:38;;;;;;;13.73;13.13;;;23.80;99.90;;;;;;5022755;28;20503;-67
2023/07/24 10:23:06;;;;;;;14.27;13.67;;;23.60;99.90;;;;;;5028884;28;20991;-68
2023/07/24 10:25:35;;;;;;;14.00;13.40;;;23.40;99.90;;;;;;5021072;28;20890;-68
2023/07/24 10:28:07;;;;;;;14.93;14.23;;;23.60;99.90;;;;;;5025890;28;20464;-68
2023/07/24 10:30:34;;;;;;;14.10;13.50;;;24.30;99.90;;;;;;5020799;28;20566;-67
2023/07/24 10:33:10;;;;;;;13.70;13.10;;;24.60;99.90;;;;;;5023248;28;20456;-68
2023/07/24 10:35:42;;;;;;;14.80;13.90;;;24.80;99.90;;;;;;5015061;28;20479;-67
2023/07/24 10:38:09;;;;;;;14.10;13.50;;;24.80;99.90;;;;;;5020987;28;20467;-68
2023/07/24 10:40:36;;;;;;;14.37;13.77;;;24.70;99.90;;;;;;5025344;28;20477;-67
2023/07/24 10:43:06;;;;;;;14.60;13.90;;;25.10;99.90;;;;;;5026148;28;20990;-68
2023/07/24 10:45:41;;;;;;;14.20;13.60;;;25.60;99.90;;;;;;5026484;28;20489;-67
2023/07/24 10:48:11;;;;;;;14.63;14.03;;;26.00;99.90;;;;;;5023180;28;20538;-68
2023/07/24 10:50:39;;;;;;;14.13;13.53;;;26.00;99.90;;;;;;5021816;28;20476;-68
2023/07/24 10:53:08;;;;;;;14.50;13.90;;;26.00;99.90;;;;;;5020981;28;20477;-66
2023/07/24 10:55:35;;;;;;;14.30;13.70;;;25.10;99.90;;;;;;5020943;28;20473;-68
2023/07/24 10:58:01;;;;;;;14.43;13.80;;;24.90;99.90;;;;;;5022558;28;20539;-66
2023/07/24 11:00:28;;;;;;;14.53;13.93;;;24.80;99.90;;;;;;5025651;28;20491;-67
2023/07/24 11:02:55;;;;;;;13.90;13.37;;;24.30;99.90;;;;;;5018842;28;20465;-68
2023/07/24 11:05:24;;;;;;;13.10;12.60;;;23.90;99.90;;;;;;5015215;28;20460;-67
2023/07/24 11:07:52;;;;;;;15.27;14.57;;;23.60;99.90;;;;;;5020789;28;20471;-67
2023/07/24 11:10:20;;;;;;;22.60;21.10;;;23.30;99.90;;;;;;5020037;28;20494;-65
2023/07/24 11:12:47;;;;;;;22.87;21.23;;;22.50;99.90;;;;;;5012607;28;20503;-65
2023/07/24 11:15:15;;;;;;;21.73;20.13;;;21.50;99.90;;;;;;5019360;28;20499;-66
2023/07/24 11:17:43;;;;;;;15.33;14.43;;;20.30;99.90;;;;;;5016711;28;20453;-74
2023/07/24 11:20:11;;;;;;;9.33;9.03;;;19.20;99.90;;;;;;5019816;28;20485;-69
2023/07/24 11:22:43;;;;;;;9.10;8.80;;;18.20;99.90;;;;;;5019822;28;20468;-68
2023/07/24 11:25:11;;;;;;;6.77;6.57;;;18.00;99.90;;;;;;5013460;28;20468;-68
2023/07/24 11:27:43;;;;;;;6.80;6.60;;;17.60;99.90;;;;;;5013442;28;20461;-68
2023/07/24 11:30:12;;;;;;;5.30;5.20;;;17.60;99.90;;;;;;5024086;28;20552;-68
2023/07/24 11:32:41;;;;;;;6.73;6.40;;;17.80;99.90;;;;;;5024313;28;20538;-69
2023/07/24 11:35:09;;;;;;;8.07;7.77;;;18.20;99.90;;;;;;5019028;28;20595;-68
2023/07/24 11:37:38;;;;;;;10.90;10.50;;;18.50;99.90;;;;;;5020593;28;20452;-68
2023/07/24 11:40:10;;;;;;;9.90;9.60;;;18.80;99.90;;;;;;5021301;28;20489;-68
2023/07/24 11:42:40;;;;;;;12.20;11.70;;;19.10;99.90;;;;;;5017881;28;20478;-67
2023/07/24 11:45:09;;;;;;;14.57;13.97;;;19.10;99.90;;;;;;5020903;28;20453;-67
2023/07/24 11:47:47;;;;;;;14.00;13.50;;;19.00;99.90;;;;;;5021675;28;20556;-68
2023/07/24 11:50:14;;;;;;;12.90;12.40;;;18.80;99.90;;;;;;5019549;28;20521;-69
2023/07/24 11:52:43;;;;;;;13.70;13.20;;;19.00;99.90;;;;;;5022031;28;20472;-67
2023/07/24 11:55:12;;;;;;;12.30;11.80;;;18.70;99.90;;;;;;5019230;28;20547;-68
2023/07/24 11:57:39;;;;;;;10.77;10.37;;;18.60;99.90;;;;;;5022733;28;20469;-68
2023/07/24 12:00:18;;;;;;;11.00;10.50;;;18.60;99.90;;;;;;5026366;28;20899;-66
2023/07/24 12:02:45;;;;;;;9.93;9.57;;;18.70;99.90;;;;;;5025075;28;20469;-68
2023/07/24 12:05:12;;;;;;;10.13;9.83;;;18.70;99.90;;;;;;5021526;28;20820;-68
2023/07/24 12:07:39;;;;;;;9.80;9.50;;;18.80;99.90;;;;;;5027602;28;20460;-68
2023/07/24 12:10:08;;;;;;;10.87;10.57;;;18.80;99.90;;;;;;5022943;28;20839;-67
2023/07/24 12:12:44;;;;;;;11.00;10.50;;;18.70;99.90;;;;;;5024608;28;20467;-67
2023/07/24 12:15:13;;;;;;;9.33;9.03;;;18.60;99.90;;;;;;5019633;28;20812;-67
2023/07/24 12:17:40;;;;;;;7.40;7.20;;;18.40;99.90;;;;;;5007620;28;20467;-67
2023/07/24 12:20:09;;;;;;;6.73;6.53;;;19.00;99.90;;;;;;5000566;28;20849;-67
2023/07/24 12:22:36;;;;;;;8.93;8.43;;;19.90;99.90;;;;;;5005570;28;20469;-67
2023/07/24 12:25:05;;;;;;;9.50;9.20;;;20.60;99.90;;;;;;5007079;28;20948;-67
2023/07/24 12:27:35;;;;;;;10.73;10.33;;;20.90;99.90;;;;;;5006894;28;20474;-67
2023/07/24 12:30:03;;;;;;;13.40;12.90;;;21.20;99.90;;;;;;5007061;28;20466;-68
2023/07/24 12:32:30;;;;;;;16.00;15.30;;;21.70;99.90;;;;;;5009189;28;20468;-66
2023/07/24 12:34:57;;;;;;;18.10;17.20;;;22.30;99.90;;;;;;5009632;28;20468;-68